Time;durP1;ratioP1;P1;durP2;ratioP2;P2;SDS_P1;SDS_P2;PMS_P1;PMS_P2;Temp;Humidity;BMP_temperature;BMP_pressure;BME280_temperature;BME280_humidity;BME280_pressure;Samples;Min_cycle;Max_cycle;Signal;HPM_P1;HPM_P2
2021/12/08 00:00:58;;;;;;;39.22;20.77;;;3.30;96.40;;;;;;4933357;29;20032;-60
2021/12/08 00:03:28;;;;;;;37.30;20.08;;;3.30;96.40;;;;;;4932935;29;20051;-60
2021/12/08 00:05:54;;;;;;;40.20;21.13;;;3.30;96.30;;;;;;4932043;29;20601;-60
2021/12/08 00:08:22;;;;;;;40.65;19.75;;;3.30;96.30;;;;;;4929738;29;20042;-60
2021/12/08 00:13:36;;;;;;;34.30;19.38;;;3.30;96.40;;;;;;4937694;29;20032;-60
2021/12/08 00:16:10;;;;;;;39.85;20.13;;;3.30;96.40;;;;;;4935424;29;20035;-60
2021/12/08 00:18:36;;;;;;;38.17;19.55;;;3.30;96.40;;;;;;4931309;29;20036;-60
2021/12/08 00:21:06;;;;;;;40.28;19.83;;;3.30;96.40;;;;;;4916975;29;20637;-60
2021/12/08 00:23:32;;;;;;;42.63;21.52;;;3.30;96.40;;;;;;4934542;29;20463;-60
2021/12/08 00:25:57;;;;;;;38.80;19.95;;;3.30;96.40;;;;;;4934645;29;20086;-60
2021/12/08 00:28:24;;;;;;;39.95;20.17;;;3.30;96.40;;;;;;4934789;29;20032;-61
2021/12/08 00:30:53;;;;;;;35.35;19.05;;;3.20;96.40;;;;;;4934969;29;20114;-60
2021/12/08 00:33:19;;;;;;;39.95;20.17;;;3.30;96.40;;;;;;4932768;29;20028;-60
2021/12/08 00:35:47;;;;;;;39.78;20.13;;;3.30;96.30;;;;;;4931946;28;20495;-60
2021/12/08 00:38:14;;;;;;;37.80;20.08;;;3.20;96.30;;;;;;4934564;29;20039;-60
2021/12/08 00:40:40;;;;;;;38.47;21.02;;;3.20;96.40;;;;;;4932869;29;20431;-60
2021/12/08 00:43:06;;;;;;;39.88;20.75;;;3.20;96.40;;;;;;4933842;29;20075;-60
2021/12/08 00:45:32;;;;;;;40.40;20.67;;;3.20;96.30;;;;;;4930498;29;20424;-60
2021/12/08 00:47:58;;;;;;;42.03;21.13;;;3.10;96.30;;;;;;4936502;29;20067;-60
2021/12/08 00:50:29;;;;;;;40.97;20.83;;;3.10;96.40;;;;;;4934341;29;20055;-60
2021/12/08 00:52:57;;;;;;;39.05;20.45;;;3.10;96.40;;;;;;4932905;29;20056;-60
2021/12/08 00:55:23;;;;;;;39.83;20.70;;;3.10;96.40;;;;;;4932144;29;20067;-60
2021/12/08 00:57:49;;;;;;;35.22;19.83;;;3.20;96.40;;;;;;4934108;29;20082;-60
2021/12/08 01:00:22;;;;;;;40.13;19.27;;;3.10;96.40;;;;;;4933784;29;20377;-60
2021/12/08 01:02:48;;;;;;;36.33;19.98;;;3.10;96.40;;;;;;4931107;29;20539;-60
2021/12/08 01:05:18;;;;;;;37.75;19.77;;;3.10;96.60;;;;;;4931053;29;20027;-60
2021/12/08 01:07:43;;;;;;;39.40;20.80;;;3.10;96.40;;;;;;4931633;29;20032;-60
2021/12/08 01:10:14;;;;;;;39.53;19.08;;;3.10;96.40;;;;;;4932349;29;20034;-60
2021/12/08 01:12:39;;;;;;;41.60;20.45;;;3.10;96.40;;;;;;4930626;29;20364;-60
2021/12/08 01:15:06;;;;;;;38.10;20.30;;;3.10;96.40;;;;;;4932339;29;20043;-60
2021/12/08 01:17:32;;;;;;;38.28;20.20;;;3.10;96.50;;;;;;4931598;29;20463;-60
2021/12/08 01:19:58;;;;;;;39.53;19.90;;;3.10;96.40;;;;;;4934174;29;20070;-60
2021/12/08 01:22:24;;;;;;;40.60;20.50;;;3.10;96.40;;;;;;4933553;29;20047;-60
2021/12/08 01:24:49;;;;;;;39.03;21.23;;;3.10;96.40;;;;;;4933518;29;20023;-60
2021/12/08 01:27:15;;;;;;;42.78;21.40;;;3.10;96.40;;;;;;4933429;29;20027;-60
2021/12/08 01:29:40;;;;;;;40.22;21.13;;;3.00;96.40;;;;;;4933354;29;20474;-60
2021/12/08 01:32:07;;;;;;;43.00;22.25;;;3.00;96.40;;;;;;4932441;29;20039;-60
2021/12/08 01:34:33;;;;;;;40.40;20.98;;;3.00;96.50;;;;;;4932952;29;20032;-60
2021/12/08 01:36:59;;;;;;;40.17;20.65;;;3.00;96.50;;;;;;4932864;29;20091;-61
2021/12/08 01:39:24;;;;;;;40.08;20.58;;;3.00;96.50;;;;;;4933269;29;20020;-60
2021/12/08 01:41:52;;;;;;;40.85;20.27;;;3.00;96.50;;;;;;4931251;29;20026;-59
2021/12/08 01:47:19;;;;;;;38.60;20.20;;;3.10;96.50;;;;;;4907935;29;20042;-61
2021/12/08 01:49:45;;;;;;;38.92;21.30;;;3.10;96.50;;;;;;4926563;29;20035;-61
2021/12/08 01:52:10;;;;;;;40.70;20.52;;;3.10;96.50;;;;;;4932391;29;20056;-61
2021/12/08 01:54:36;;;;;;;43.50;22.52;;;3.10;96.50;;;;;;4936718;29;20075;-61
2021/12/08 01:57:02;;;;;;;45.25;21.80;;;3.10;96.50;;;;;;4936945;29;20487;-61
2021/12/08 01:59:27;;;;;;;37.30;19.90;;;3.10;96.50;;;;;;4935731;29;20079;-60
2021/12/08 02:01:53;;;;;;;40.17;19.33;;;3.10;96.50;;;;;;4937322;29;20032;-61
2021/12/08 02:04:18;;;;;;;38.10;20.90;;;3.10;96.40;;;;;;4937036;29;20185;-61
2021/12/08 02:06:46;;;;;;;43.58;21.95;;;3.10;96.30;;;;;;4937511;29;20036;-61
2021/12/08 02:09:14;;;;;;;38.50;20.85;;;3.10;96.40;;;;;;4932667;29;20032;-61
2021/12/08 02:11:45;;;;;;;41.33;21.10;;;3.10;96.40;;;;;;4927142;29;20513;-62
2021/12/08 02:14:10;;;;;;;41.88;21.33;;;3.10;96.40;;;;;;4936703;29;20038;-61
2021/12/08 02:16:36;;;;;;;44.22;19.90;;;3.00;96.40;;;;;;4937131;29;20040;-61
2021/12/08 02:19:03;;;;;;;39.33;20.60;;;3.00;96.40;;;;;;4935649;29;20062;-61
2021/12/08 02:21:35;;;;;;;40.95;21.88;;;3.00;96.40;;;;;;4936419;29;20044;-61
2021/12/08 02:24:08;;;;;;;43.10;21.40;;;3.00;96.40;;;;;;4930800;29;20107;-61
2021/12/08 02:26:34;;;;;;;39.58;21.15;;;3.00;96.40;;;;;;4951408;29;20452;-61
2021/12/08 02:29:07;;;;;;;38.78;18.27;;;3.00;96.40;;;;;;4935447;29;20076;-62
2021/12/08 02:31:45;;;;;;;33.88;18.33;;;3.00;96.40;;;;;;4936360;29;20103;-61
2021/12/08 02:47:54;;;;;;;35.63;18.77;;;2.80;96.40;;;;;;4933056;28;20110;-60
2021/12/08 02:50:29;;;;;;;38.38;19.95;;;2.80;96.40;;;;;;4936287;29;20032;-61
2021/12/08 02:52:56;;;;;;;36.75;18.10;;;2.70;96.40;;;;;;4935743;29;20052;-61
2021/12/08 02:55:22;;;;;;;38.88;20.73;;;2.70;96.50;;;;;;4935156;29;20086;-61
2021/12/08 02:57:47;;;;;;;36.72;18.42;;;2.60;96.50;;;;;;4938208;29;20054;-61
2021/12/08 03:00:18;;;;;;;36.80;18.85;;;2.60;96.50;;;;;;4943824;29;20039;-61
2021/12/08 03:02:44;;;;;;;37.38;18.60;;;2.70;96.50;;;;;;4936557;29;20038;-62
2021/12/08 03:05:10;;;;;;;40.83;19.92;;;2.70;96.50;;;;;;4934677;29;20036;-62
2021/12/08 03:07:37;;;;;;;32.00;18.20;;;2.70;96.50;;;;;;4936477;29;20098;-62
2021/12/08 03:10:09;;;;;;;33.80;18.00;;;2.70;96.50;;;;;;4934746;29;20035;-62
2021/12/08 03:12:35;;;;;;;38.72;18.98;;;2.70;96.70;;;;;;4936685;29;20036;-60
2021/12/08 03:15:01;;;;;;;32.25;17.52;;;2.70;96.50;;;;;;4934101;29;20054;-61
2021/12/08 03:17:26;;;;;;;37.10;18.40;;;2.70;96.40;;;;;;4936052;29;20031;-61
2021/12/08 03:19:52;;;;;;;35.72;19.05;;;2.60;96.40;;;;;;4935538;29;20040;-61
2021/12/08 03:22:18;;;;;;;35.85;20.65;;;2.60;96.40;;;;;;4936921;29;20028;-60
2021/12/08 03:24:46;;;;;;;35.58;18.85;;;2.60;96.50;;;;;;4934989;29;20103;-60
2021/12/08 03:27:15;;;;;;;34.95;18.13;;;2.60;96.50;;;;;;4935650;29;20023;-61
2021/12/08 03:29:53;;;;;;;38.35;17.92;;;2.60;96.50;;;;;;4934857;29;20031;-61
2021/12/08 03:32:28;;;;;;;33.17;16.67;;;2.60;96.60;;;;;;4934817;29;20610;-61
2021/12/08 03:34:54;;;;;;;37.38;19.35;;;2.70;96.60;;;;;;4935138;29;20047;-61
2021/12/08 03:37:29;;;;;;;38.78;19.25;;;2.70;96.60;;;;;;4936353;29;20023;-61
2021/12/08 03:39:57;;;;;;;36.50;18.83;;;2.70;96.60;;;;;;4929089;29;20036;-61
2021/12/08 03:42:25;;;;;;;36.00;19.70;;;2.70;96.70;;;;;;4928945;29;20114;-61
2021/12/08 03:44:54;;;;;;;37.83;18.88;;;2.70;96.60;;;;;;4935715;29;20491;-61
2021/12/08 03:47:27;;;;;;;34.42;18.48;;;2.70;96.50;;;;;;4929427;29;20475;-61
2021/12/08 03:49:56;;;;;;;35.40;20.27;;;2.70;96.50;;;;;;4933771;29;20047;-61
2021/12/08 03:52:22;;;;;;;37.25;19.35;;;2.70;96.50;;;;;;4934770;29;20043;-61
2021/12/08 03:54:47;;;;;;;38.22;19.23;;;2.70;96.50;;;;;;4934413;29;20047;-62
2021/12/08 03:57:13;;;;;;;39.25;19.83;;;2.70;96.50;;;;;;4934666;29;20436;-61
2021/12/08 03:59:38;;;;;;;33.92;18.05;;;2.70;96.50;;;;;;4934492;29;20090;-62
2021/12/08 04:02:04;;;;;;;39.50;20.65;;;2.70;96.50;;;;;;4935640;29;20106;-62
2021/12/08 04:04:39;;;;;;;37.45;21.27;;;2.80;96.50;;;;;;4929910;29;20042;-62
2021/12/08 04:07:05;;;;;;;38.20;19.67;;;2.80;96.50;;;;;;4935379;29;20071;-62
2021/12/08 04:09:39;;;;;;;41.20;21.58;;;2.70;96.40;;;;;;4935093;29;20103;-62
2021/12/08 04:12:05;;;;;;;37.70;20.90;;;2.70;96.40;;;;;;4934303;29;20062;-62
2021/12/08 04:14:35;;;;;;;35.78;19.52;;;2.70;96.40;;;;;;4934256;29;20044;-62
2021/12/08 04:17:11;;;;;;;37.47;19.63;;;2.70;96.50;;;;;;4935037;29;20031;-61
2021/12/08 04:19:38;;;;;;;42.42;20.35;;;2.70;96.60;;;;;;4933084;29;20055;-62
2021/12/08 04:22:09;;;;;;;36.47;19.80;;;2.60;96.50;;;;;;4932266;28;20039;-62
2021/12/08 04:24:36;;;;;;;39.38;21.02;;;2.70;96.60;;;;;;4931202;29;20040;-61
2021/12/08 04:27:10;;;;;;;38.45;20.65;;;2.70;96.60;;;;;;4935310;29;20032;-62
2021/12/08 04:29:39;;;;;;;37.95;20.83;;;2.70;96.60;;;;;;4932955;29;20035;-62
2021/12/08 04:32:06;;;;;;;35.83;19.58;;;2.70;96.60;;;;;;4935308;29;20059;-62
2021/12/08 04:34:34;;;;;;;41.10;21.20;;;2.70;96.60;;;;;;4933624;29;20031;-62
2021/12/08 04:37:06;;;;;;;42.50;21.05;;;2.70;96.60;;;;;;4934795;29;20055;-62
2021/12/08 04:39:51;;;;;;;42.53;20.98;;;2.80;96.60;;;;;;4935000;29;20039;-62
2021/12/08 04:42:25;;;;;;;;;;;2.70;96.60;;;;;;4934863;29;20471;-62
2021/12/08 04:44:57;;;;;;;45.03;20.20;;;2.70;96.50;;;;;;4937913;29;19911;-63
2021/12/08 05:06:47;;;;;;;38.08;20.25;;;2.70;96.60;;;;;;4934452;29;20082;-62
2021/12/08 05:09:24;;;;;;;35.05;18.48;;;2.70;96.60;;;;;;4933406;29;20814;-62
2021/12/08 05:11:58;;;;;;;36.03;20.15;;;2.70;96.50;;;;;;4929339;29;20028;-62
2021/12/08 05:14:42;;;;;;;41.20;22.30;;;2.80;96.60;;;;;;4927141;29;20039;-61
2021/12/08 05:17:16;;;;;;;38.50;19.00;;;2.80;96.60;;;;;;4934515;29;20118;-61
2021/12/08 05:19:57;;;;;;;42.40;20.33;;;2.80;96.60;;;;;;4934183;29;20028;-61
2021/12/08 05:22:32;;;;;;;36.25;19.70;;;2.80;96.50;;;;;;4933278;29;20079;-61
2021/12/08 05:25:04;;;;;;;35.55;19.27;;;2.80;96.50;;;;;;4933123;29;20031;-61
2021/12/08 05:27:40;;;;;;;36.45;20.38;;;2.80;96.40;;;;;;4933337;29;20098;-61
2021/12/08 05:30:16;;;;;;;35.08;18.55;;;2.70;96.50;;;;;;4930943;29;20031;-62
2021/12/08 05:32:41;;;;;;;36.03;19.30;;;2.70;96.50;;;;;;4933119;29;20048;-61
2021/12/08 05:35:10;;;;;;;32.95;17.60;;;2.70;96.50;;;;;;4933168;29;20376;-61
2021/12/08 05:37:36;;;;;;;41.80;20.35;;;2.70;96.50;;;;;;4932837;29;20028;-61
2021/12/08 05:40:04;;;;;;;32.38;18.15;;;2.70;96.50;;;;;;4933225;29;20036;-61
2021/12/08 05:42:35;;;;;;;36.03;19.58;;;2.70;96.50;;;;;;4928524;29;20453;-61
2021/12/08 05:45:06;;;;;;;32.40;18.00;;;2.60;96.40;;;;;;4933579;29;20648;-61
2021/12/08 05:47:32;;;;;;;33.97;18.20;;;2.60;96.40;;;;;;4934356;29;20102;-61
2021/12/08 05:49:58;;;;;;;37.53;19.70;;;2.60;96.40;;;;;;4934261;29;20459;-61
2021/12/08 05:52:24;;;;;;;37.30;19.42;;;2.60;96.40;;;;;;4933369;29;20056;-61
2021/12/08 05:54:50;;;;;;;39.22;20.05;;;2.60;96.40;;;;;;4932832;29;20052;-62
2021/12/08 05:57:26;;;;;;;38.35;20.58;;;2.50;96.40;;;;;;4933816;29;20044;-62
2021/12/08 05:59:53;;;;;;;39.28;19.42;;;2.50;96.40;;;;;;4933200;29;20047;-62
2021/12/08 06:02:30;;;;;;;37.28;19.05;;;2.50;96.40;;;;;;4932428;29;20047;-62
2021/12/08 06:04:57;;;;;;;36.05;18.38;;;2.40;96.50;;;;;;4931602;29;20064;-61
2021/12/08 06:07:23;;;;;;;36.92;18.33;;;2.50;96.50;;;;;;4933231;29;20426;-61
2021/12/08 06:09:51;;;;;;;36.10;19.38;;;2.50;96.50;;;;;;4947695;28;20554;-62
2021/12/08 06:12:17;;;;;;;34.38;18.88;;;2.40;96.50;;;;;;4932155;29;20032;-61
2021/12/08 06:14:44;;;;;;;38.10;19.98;;;2.40;96.50;;;;;;4932690;29;20059;-61
2021/12/08 06:17:13;;;;;;;33.00;17.17;;;2.40;96.60;;;;;;4933241;29;20488;-61
2021/12/08 06:19:40;;;;;;;34.20;18.30;;;2.40;96.60;;;;;;4932482;29;20031;-61
2021/12/08 06:22:08;;;;;;;36.55;18.52;;;2.40;96.60;;;;;;4933400;29;20032;-61
2021/12/08 06:24:33;;;;;;;38.03;19.58;;;2.30;96.60;;;;;;4932563;29;20039;-61
2021/12/08 06:27:00;;;;;;;37.63;18.33;;;2.40;96.60;;;;;;4930302;29;20468;-61
2021/12/08 06:29:26;;;;;;;40.65;20.95;;;2.40;96.60;;;;;;4930352;29;20038;-62
2021/12/08 06:31:55;;;;;;;37.00;18.48;;;2.30;96.60;;;;;;4933762;29;20111;-61
2021/12/08 06:34:22;;;;;;;37.33;19.60;;;2.30;96.60;;;;;;4933260;29;20055;-62
2021/12/08 06:37:00;;;;;;;37.50;19.05;;;2.30;96.60;;;;;;4933183;29;20513;-61
2021/12/08 06:39:39;;;;;;;37.53;19.33;;;2.30;96.70;;;;;;4934821;29;20055;-62
2021/12/08 06:42:11;;;;;;;37.92;19.38;;;2.20;96.70;;;;;;4932597;29;20428;-61
2021/12/08 06:44:42;;;;;;;39.83;19.33;;;2.30;96.70;;;;;;4936219;29;20118;-61
2021/12/08 06:47:11;;;;;;;40.47;19.52;;;2.20;96.70;;;;;;4951731;29;20380;-61
2021/12/08 06:49:37;;;;;;;38.40;20.73;;;2.20;96.80;;;;;;4934753;29;20035;-62
2021/12/08 06:52:12;;;;;;;42.45;20.98;;;2.20;96.80;;;;;;4931523;29;20047;-62
2021/12/08 06:54:42;;;;;;;37.92;18.83;;;2.20;96.80;;;;;;4930914;29;20039;-61
2021/12/08 06:57:17;;;;;;;44.72;21.50;;;2.20;96.90;;;;;;4934115;29;20505;-61
2021/12/08 06:59:55;;;;;;;;;;;2.20;96.90;;;;;;4950031;28;20440;-62
2021/12/08 07:02:48;;;;;;;45.38;20.60;;;2.20;96.80;;;;;;4933624;29;20385;-62
2021/12/08 07:05:12;;;;;;;38.80;19.20;;;2.20;96.80;;;;;;4935185;29;20118;-62
2021/12/08 07:07:41;;;;;;;39.72;19.88;;;2.30;96.80;;;;;;4936833;29;20479;-62
2021/12/08 07:10:19;;;;;;;39.25;21.67;;;2.30;96.80;;;;;;4929321;29;20036;-61
2021/12/08 07:12:50;;;;;;;41.53;20.80;;;2.30;96.90;;;;;;4935147;29;20115;-61
2021/12/08 07:15:18;;;;;;;36.78;19.67;;;2.40;96.90;;;;;;4929746;29;20047;-62
2021/12/08 07:17:50;;;;;;;39.67;21.42;;;2.40;96.90;;;;;;4929790;29;20035;-61
2021/12/08 07:22:57;;;;;;;45.75;21.30;;;2.40;96.80;;;;;;4930287;29;20035;-61
2021/12/08 07:25:25;;;;;;;43.88;21.48;;;2.40;97.00;;;;;;4948649;28;20027;-62
2021/12/08 07:27:51;;;;;;;52.13;23.02;;;2.30;96.80;;;;;;4936502;29;20487;-62
2021/12/08 07:30:21;;;;;;;44.70;22.13;;;2.30;96.80;;;;;;4934446;29;20122;-62
2021/12/08 07:32:48;;;;;;;42.83;21.17;;;2.30;96.80;;;;;;4936742;28;20087;-62
2021/12/08 07:35:19;;;;;;;43.78;21.08;;;2.30;96.80;;;;;;4934074;29;20149;-63
2021/12/08 07:37:45;;;;;;;42.95;21.08;;;2.30;96.90;;;;;;4934810;29;20032;-62
2021/12/08 07:40:26;;;;;;;42.05;21.50;;;2.30;96.90;;;;;;4940969;29;20107;-62
2021/12/08 07:43:03;;;;;;;44.70;20.83;;;2.30;96.90;;;;;;4946312;28;20080;-62
2021/12/08 07:45:42;;;;;;;47.30;20.60;;;2.40;96.90;;;;;;4947172;28;20031;-61
2021/12/08 07:48:10;;;;;;;41.42;19.90;;;2.30;96.90;;;;;;4937110;29;20028;-62
2021/12/08 07:50:42;;;;;;;46.78;22.95;;;2.40;96.90;;;;;;4932751;28;20059;-63
2021/12/08 07:53:11;;;;;;;44.08;21.15;;;2.40;96.90;;;;;;4935966;29;20111;-63
2021/12/08 07:55:41;;;;;;;42.90;20.08;;;2.40;96.80;;;;;;4932402;29;20054;-62
2021/12/08 07:58:07;;;;;;;49.72;22.35;;;2.40;96.80;;;;;;4934242;29;20487;-63
2021/12/08 08:00:51;;;;;;;45.13;20.98;;;2.50;96.90;;;;;;4931294;29;20110;-61
2021/12/08 08:03:18;;;;;;;41.13;21.45;;;2.50;96.80;;;;;;4932440;29;20079;-62
2021/12/08 08:05:47;;;;;;;44.78;22.73;;;2.50;96.80;;;;;;4937892;29;20030;-62
2021/12/08 08:08:15;;;;;;;58.78;22.52;;;2.50;96.80;;;;;;4932531;29;20039;-62
2021/12/08 08:10:46;;;;;;;48.58;22.65;;;2.50;96.70;;;;;;4934454;29;20038;-62
2021/12/08 08:13:15;;;;;;;51.67;22.33;;;2.50;96.80;;;;;;4938305;29;20032;-63
2021/12/08 08:15:46;;;;;;;44.83;20.15;;;2.50;96.80;;;;;;4934737;29;20387;-62
2021/12/08 08:18:14;;;;;;;42.58;21.23;;;2.60;96.80;;;;;;4935408;29;20427;-62
2021/12/08 08:20:47;;;;;;;46.05;22.42;;;2.60;96.80;;;;;;4937625;29;20039;-62
2021/12/08 08:23:15;;;;;;;46.00;22.63;;;2.60;96.70;;;;;;4941915;29;20094;-63
2021/12/08 08:25:44;;;;;;;47.22;21.67;;;2.70;96.70;;;;;;4934579;29;20046;-63
2021/12/08 08:28:10;;;;;;;50.28;23.25;;;2.70;96.80;;;;;;4937358;29;20133;-63
2021/12/08 08:30:45;;;;;;;48.63;21.67;;;2.80;96.80;;;;;;4933844;29;20068;-62
2021/12/08 08:33:11;;;;;;;51.38;22.33;;;2.80;96.70;;;;;;4929394;29;20023;-62
2021/12/08 08:35:42;;;;;;;43.85;22.15;;;2.80;96.70;;;;;;4928924;29;20119;-63
2021/12/08 08:38:15;;;;;;;43.95;21.00;;;2.80;96.80;;;;;;4933650;29;20519;-63
2021/12/08 08:40:47;;;;;;;52.65;23.73;;;2.90;96.90;;;;;;4928850;29;20040;-62
2021/12/08 08:43:16;;;;;;;48.03;22.20;;;3.00;97.00;;;;;;4926973;29;20032;-62
2021/12/08 08:45:51;;;;;;;47.47;25.08;;;3.10;97.00;;;;;;4936489;29;20047;-62
2021/12/08 08:48:28;;;;;;;51.50;23.58;;;3.20;97.00;;;;;;4935926;28;20027;-62
2021/12/08 08:51:11;;;;;;;50.03;22.35;;;3.20;96.70;;;;;;4929687;29;20103;-62
2021/12/08 08:53:42;;;;;;;47.03;22.77;;;3.20;96.70;;;;;;4929102;29;20073;-63
2021/12/08 08:56:12;;;;;;;50.60;25.33;;;3.20;96.50;;;;;;4929750;29;20466;-61
2021/12/08 08:58:42;;;;;;;45.30;23.13;;;3.30;96.50;;;;;;4944909;29;20138;-62
2021/12/08 09:01:13;;;;;;;44.63;21.40;;;3.30;96.50;;;;;;4935770;29;20066;-62
2021/12/08 09:03:41;;;;;;;42.53;20.08;;;3.30;96.30;;;;;;4928993;29;20058;-62
2021/12/08 09:06:20;;;;;;;49.50;24.70;;;3.20;96.30;;;;;;4937755;29;20075;-62
2021/12/08 09:08:47;;;;;;;47.47;21.33;;;3.20;96.10;;;;;;4933467;29;20024;-62
2021/12/08 09:11:26;;;;;;;43.15;21.50;;;3.20;96.20;;;;;;4930515;29;20039;-63
2021/12/08 09:14:00;;;;;;;48.88;23.33;;;3.20;96.10;;;;;;4921821;29;20028;-62
2021/12/08 09:16:39;;;;;;;47.25;21.88;;;3.10;96.10;;;;;;4927928;29;20046;-62
2021/12/08 09:19:16;;;;;;;51.20;22.90;;;3.20;96.20;;;;;;4928461;29;20066;-62
2021/12/08 09:22:16;;;;;;;46.42;22.83;;;3.20;96.20;;;;;;4931795;29;20036;-63
2021/12/08 09:24:49;;;;;;;54.33;24.50;;;3.30;96.20;;;;;;4926209;29;20396;-62
2021/12/08 09:27:23;;;;;;;50.67;21.05;;;3.20;96.20;;;;;;4932131;29;20030;-62
2021/12/08 09:29:57;;;;;;;43.67;22.30;;;3.30;96.20;;;;;;4927573;29;20051;-61
2021/12/08 09:32:28;;;;;;;;;;;3.30;96.10;;;;;;4927043;29;20323;-62
2021/12/08 09:34:58;;;;;;;43.05;21.45;;;3.30;96.10;;;;;;4930794;29;20289;-62
2021/12/08 09:37:33;;;;;;;49.65;21.13;;;3.20;96.00;;;;;;4927878;29;20032;-62
2021/12/08 09:40:06;;;;;;;41.55;21.35;;;3.20;96.00;;;;;;4935680;28;20031;-61
2021/12/08 09:42:37;;;;;;;44.25;21.52;;;3.30;95.90;;;;;;4928929;29;20032;-62
2021/12/08 09:45:21;;;;;;;48.38;22.45;;;3.30;96.00;;;;;;4932302;29;20024;-61
2021/12/08 09:47:47;;;;;;;54.00;23.35;;;3.30;95.90;;;;;;4926669;29;20039;-62
2021/12/08 09:50:14;;;;;;;43.70;21.98;;;3.30;96.00;;;;;;4926748;29;20039;-63
2021/12/08 09:52:43;;;;;;;44.55;22.05;;;3.40;96.00;;;;;;4934838;29;20058;-62
2021/12/08 09:55:10;;;;;;;46.05;21.70;;;3.40;95.90;;;;;;4929316;29;20071;-62
2021/12/08 09:57:36;;;;;;;51.78;23.60;;;3.40;95.90;;;;;;4932403;29;20043;-62
2021/12/08 10:00:08;;;;;;;50.85;24.13;;;3.50;95.90;;;;;;4930941;29;20024;-62
2021/12/08 10:02:35;;;;;;;45.13;21.92;;;3.50;96.00;;;;;;4930634;29;20444;-61
2021/12/08 10:05:12;;;;;;;48.42;24.88;;;3.50;95.80;;;;;;4928784;29;20063;-62
2021/12/08 10:07:40;;;;;;;42.90;21.27;;;3.50;95.80;;;;;;4926938;29;20035;-62
2021/12/08 10:10:08;;;;;;;49.28;21.63;;;3.60;95.70;;;;;;4928520;29;20032;-62
2021/12/08 10:12:35;;;;;;;50.38;22.50;;;3.60;95.70;;;;;;4931028;29;20195;-62
2021/12/08 10:15:02;;;;;;;46.70;22.52;;;3.60;95.60;;;;;;4931981;29;20044;-62
2021/12/08 10:17:28;;;;;;;47.88;23.10;;;3.60;95.60;;;;;;4931752;29;20072;-63
2021/12/08 10:20:16;;;;;;;47.88;22.40;;;3.70;95.60;;;;;;4929105;29;20027;-63
2021/12/08 10:22:45;;;;;;;50.47;23.20;;;3.70;95.50;;;;;;4930129;29;20042;-63
2021/12/08 10:25:15;;;;;;;48.67;23.00;;;3.80;95.50;;;;;;4933418;29;20072;-62
2021/12/08 10:28:05;;;;;;;47.20;21.90;;;3.70;95.50;;;;;;4936416;29;20074;-62
2021/12/08 10:30:33;;;;;;;45.22;20.13;;;3.80;95.50;;;;;;4935554;29;20063;-62
2021/12/08 10:33:00;;;;;;;44.42;22.02;;;3.80;95.50;;;;;;4935491;29;20053;-63
2021/12/08 10:35:45;;;;;;;47.53;23.45;;;3.90;95.50;;;;;;4934271;29;20047;-63
2021/12/08 10:38:12;;;;;;;51.75;22.55;;;3.90;95.40;;;;;;4937400;29;20030;-63
2021/12/08 10:40:54;;;;;;;47.95;23.60;;;3.90;95.10;;;;;;4932892;29;20150;-63
2021/12/08 10:43:20;;;;;;;48.72;22.58;;;3.90;95.20;;;;;;4938859;29;20126;-63
2021/12/08 10:46:01;;;;;;;42.95;21.60;;;3.90;95.20;;;;;;4945216;28;20036;-63
2021/12/08 10:48:33;;;;;;;46.83;23.58;;;3.90;95.20;;;;;;4929814;29;20035;-63
2021/12/08 10:56:37;;;;;;;45.25;21.02;;;4.00;94.80;;;;;;4930873;29;19953;-63
2021/12/08 10:59:04;;;;;;;46.15;22.90;;;3.90;94.90;;;;;;4933814;29;20028;-63
2021/12/08 11:01:30;;;;;;;45.00;21.60;;;3.90;95.00;;;;;;4933433;29;20070;-62
2021/12/08 11:04:03;;;;;;;44.50;21.60;;;4.00;95.00;;;;;;4935484;29;20087;-63
2021/12/08 11:06:36;;;;;;;46.75;22.77;;;4.00;94.90;;;;;;4943015;28;20034;-63
2021/12/08 11:09:06;;;;;;;46.35;23.27;;;4.00;94.80;;;;;;4928077;29;20035;-63
2021/12/08 11:11:33;;;;;;;44.10;22.65;;;4.00;94.80;;;;;;4928475;29;20090;-63
2021/12/08 11:14:01;;;;;;;43.65;22.40;;;4.00;94.90;;;;;;4928734;29;20515;-63
2021/12/08 11:16:29;;;;;;;46.53;22.17;;;4.00;94.90;;;;;;4929755;29;20054;-64
2021/12/08 11:19:04;;;;;;;45.90;21.65;;;4.10;94.90;;;;;;4929117;29;20054;-63
2021/12/08 11:21:38;;;;;;;43.60;22.13;;;4.10;94.80;;;;;;4933222;29;20466;-64
2021/12/08 11:24:34;;;;;;;43.75;20.88;;;4.20;94.80;;;;;;4931433;29;20071;-63
2021/12/08 11:27:03;;;;;;;52.88;21.02;;;4.20;94.70;;;;;;4926283;29;20031;-63
2021/12/08 11:29:34;;;;;;;49.17;23.15;;;4.20;94.80;;;;;;4929183;29;20066;-63
2021/12/08 11:32:01;;;;;;;45.60;21.33;;;4.30;94.70;;;;;;4929463;29;20042;-63
2021/12/08 11:34:31;;;;;;;43.05;22.10;;;4.30;94.70;;;;;;4926337;29;20036;-64
2021/12/08 11:37:13;;;;;;;43.33;21.00;;;4.30;94.70;;;;;;4928290;29;20118;-62
2021/12/08 11:39:42;;;;;;;48.63;21.58;;;4.30;94.60;;;;;;4927096;29;20032;-63
2021/12/08 11:42:13;;;;;;;45.17;22.23;;;4.30;94.50;;;;;;4934402;29;20043;-64
2021/12/08 11:44:43;;;;;;;45.70;23.27;;;4.30;94.60;;;;;;4926605;29;20062;-64
2021/12/08 11:47:15;;;;;;;41.58;22.17;;;4.30;94.60;;;;;;4929856;29;20034;-63
2021/12/08 11:49:48;;;;;;;44.10;20.75;;;4.30;94.40;;;;;;4929489;29;20035;-63
2021/12/08 11:52:19;;;;;;;44.88;23.80;;;4.30;94.50;;;;;;4895563;29;976416;-62
2021/12/08 11:55:06;;;;;;;43.45;22.65;;;4.30;94.40;;;;;;4925692;29;20106;-63
2021/12/08 11:57:40;;;;;;;46.35;23.27;;;4.30;94.50;;;;;;4927082;29;20040;-63
2021/12/08 12:00:28;;;;;;;44.15;22.65;;;4.30;94.60;;;;;;4929383;29;20387;-62
2021/12/08 12:03:00;;;;;;;42.80;21.88;;;4.30;94.60;;;;;;4927651;29;20058;-63
2021/12/08 12:05:40;;;;;;;47.25;22.65;;;4.40;94.60;;;;;;4935733;29;20035;-63
2021/12/08 12:08:08;;;;;;;46.20;20.83;;;4.40;94.50;;;;;;4933880;29;20032;-63
2021/12/08 12:10:39;;;;;;;43.38;20.58;;;4.40;94.60;;;;;;4932963;29;20403;-63
2021/12/08 12:13:08;;;;;;;46.58;22.92;;;4.50;94.60;;;;;;4928325;29;20040;-63
2021/12/08 12:15:35;;;;;;;54.17;23.88;;;4.50;94.60;;;;;;4927287;29;20073;-63
2021/12/08 12:18:02;;;;;;;45.53;23.13;;;4.50;94.50;;;;;;4926697;29;20042;-63
2021/12/08 12:20:41;;;;;;;42.38;21.90;;;4.60;94.50;;;;;;4933951;29;20091;-63
2021/12/08 12:23:36;;;;;;;42.67;21.85;;;4.60;94.50;;;;;;4933138;29;20054;-63
2021/12/08 12:26:16;;;;;;;42.65;21.08;;;4.70;94.50;;;;;;4932315;29;20437;-63
2021/12/08 12:29:11;;;;;;;40.47;19.50;;;4.70;94.40;;;;;;4932534;29;20641;-63
2021/12/08 12:32:02;;;;;;;43.93;21.50;;;4.70;94.30;;;;;;4915494;29;20427;-62
2021/12/08 12:34:32;;;;;;;44.35;20.70;;;4.80;94.40;;;;;;4932200;29;20035;-63
2021/12/08 12:36:59;;;;;;;41.67;20.55;;;4.80;94.30;;;;;;4926916;29;20050;-63
2021/12/08 12:39:27;;;;;;;44.42;20.98;;;4.80;94.20;;;;;;4925696;29;20035;-62
2021/12/08 12:41:59;;;;;;;36.53;19.52;;;4.80;94.20;;;;;;4933248;29;20433;-62
2021/12/08 12:44:29;;;;;;;44.90;22.23;;;4.90;94.20;;;;;;4931812;29;20043;-63
2021/12/08 12:47:15;;;;;;;43.00;21.48;;;5.00;94.10;;;;;;4932676;29;20427;-62
2021/12/08 12:49:44;;;;;;;47.28;22.02;;;4.90;93.90;;;;;;4936104;29;20027;-62
2021/12/08 12:52:13;;;;;;;42.63;21.30;;;4.90;93.60;;;;;;4936586;29;20499;-62
2021/12/08 12:54:40;;;;;;;40.10;21.02;;;4.80;93.80;;;;;;4932410;29;20028;-63
2021/12/08 12:57:09;;;;;;;42.08;20.67;;;4.80;93.80;;;;;;4926495;29;20162;-62
2021/12/08 12:59:42;;;;;;;40.88;22.15;;;4.70;93.60;;;;;;4927417;29;20024;-62
2021/12/08 13:02:21;;;;;;;41.67;20.23;;;4.80;93.70;;;;;;4930629;29;20574;-62
2021/12/08 13:04:51;;;;;;;41.55;20.67;;;4.70;93.70;;;;;;4933408;29;20050;-62
2021/12/08 13:07:17;;;;;;;41.28;21.63;;;4.70;93.50;;;;;;4932948;29;20496;-62
2021/12/08 13:09:47;;;;;;;39.30;19.60;;;4.60;93.50;;;;;;4931363;29;20492;-64
2021/12/08 13:12:14;;;;;;;40.50;19.30;;;4.50;93.60;;;;;;4932275;29;20475;-63
2021/12/08 13:14:40;;;;;;;40.25;20.38;;;4.50;93.70;;;;;;4931335;29;20474;-63
2021/12/08 13:17:21;;;;;;;44.63;20.75;;;4.50;93.80;;;;;;4932765;29;20042;-62
2021/12/08 13:19:48;;;;;;;43.15;21.58;;;4.40;93.70;;;;;;4930794;29;20040;-63
2021/12/08 13:22:47;;;;;;;42.80;20.83;;;4.40;93.80;;;;;;4932458;29;20056;-63
2021/12/08 13:25:51;;;;;;;51.97;21.42;;;4.40;94.00;;;;;;4932365;29;20054;-63
2021/12/08 13:28:28;;;;;;;41.13;18.65;;;4.40;93.90;;;;;;4927469;29;20153;-64
2021/12/08 13:31:18;;;;;;;41.17;21.10;;;4.40;93.90;;;;;;4931024;29;20517;-64
2021/12/08 13:33:50;;;;;;;48.80;22.92;;;4.40;93.90;;;;;;4932219;29;20043;-63
2021/12/08 13:36:22;;;;;;;38.25;19.25;;;4.40;93.90;;;;;;4933838;29;20044;-63
2021/12/08 13:38:53;;;;;;;42.50;20.63;;;4.40;94.00;;;;;;4932023;29;20044;-63
2021/12/08 13:41:21;;;;;;;46.15;23.75;;;4.40;94.00;;;;;;4933467;29;20616;-63
2021/12/08 13:43:50;;;;;;;44.42;22.35;;;4.50;94.00;;;;;;4934206;29;20032;-61